Flight Track Log - Related Links

Times and Time Zones

All times are in EDT time to prevent confusion due to time zone crossing. See the KAL824 flight status page for this flight to view local times or setup timezone preferences in your user account.

Time Position Orientation Groundspeed Altitude Reporting Facility
EDT Latitude Longitude Course Direction KTS MPH feet Rate Location/Type
Tue 12:20:00 AM 44.3739 129.4946 199° South  Level Estimated
Tue 12:21:00 AM 44.3239 129.4700 199° South  Level Estimated
Tue 12:22:00 AM 44.2738 129.4453 199° South  Level Estimated
Tue 12:23:00 AM 44.2237 129.4207 199° South  Level Estimated
Tue 12:24:00 AM 44.1737 129.3961 199° South  Level Estimated
Tue 12:25:00 AM 44.1236 129.3716 199° South  Level Estimated
Tue 12:26:00 AM 44.0735 129.3471 199° South  Level Estimated
Tue 12:27:00 AM 44.0234 129.3227 199° South  Level Estimated
Tue 12:28:00 AM 43.9733 129.2983 199° South  Level Estimated
Tue 12:29:00 AM 43.9232 129.2739 199° South  Level Estimated
Tue 12:30:00 AM 43.8731 129.2496 199° South  Level Estimated
Tue 12:31:00 AM 43.8230 129.2253 199° South  Level Estimated
Tue 12:32:00 AM 43.7729 129.2011 199° South  Level Estimated
Tue 12:33:00 AM 43.7228 129.1769 199° South  Level Estimated
Tue 12:34:00 AM 43.6726 129.1528 199° South  Level Estimated
Tue 12:35:00 AM 43.6225 129.1286 199° South  Level Estimated
Tue 12:36:00 AM 43.5724 129.1046 199° South  Level Estimated
Tue 12:37:00 AM 43.5222 129.0805 199° South  Level Estimated
Tue 12:38:00 AM 43.4721 129.0565 199° South  Level Estimated
Tue 12:39:00 AM 43.4219 129.0326 199° South  Level Estimated
Tue 12:40:00 AM 43.3718 129.0087 199° South  Level Estimated
Tue 12:41:00 AM 43.3216 128.9848 199° South  Level Estimated
Tue 12:42:00 AM 43.2715 128.9610 199° South  Level Estimated
Tue 12:43:00 AM 43.2213 128.9372 199° South  Level Estimated
Tue 12:44:00 AM 43.1711 128.9134 199° South  Level Estimated
Tue 12:45:00 AM 43.1209 128.8897 199° South  Level Estimated
Tue 12:46:00 AM 43.0708 128.8660 199° South  Level Estimated
Tue 12:47:00 AM 43.0206 128.8424 199° South  Level Estimated
Tue 12:48:00 AM 42.9704 128.8188 199° South  Level Estimated
Tue 12:49:00 AM 42.9202 128.7952 199° South  Level Estimated
Tue 12:50:00 AM 42.8700 128.7717 199° South  Level Estimated
Tue 12:51:00 AM 42.8198 128.7482 199° South  Level Estimated
Tue 12:52:00 AM 42.7695 128.7247 199° South  Level Estimated
Tue 12:53:00 AM 42.7193 128.7013 199° South  Level Estimated
Tue 12:54:00 AM 42.6691 128.6779 199° South  Level Estimated
Tue 12:55:00 AM 42.6189 128.6546 199° South  Level Estimated
Tue 12:56:00 AM 42.5686 128.6313 199° South  Level Estimated
Tue 12:57:00 AM 42.5184 128.6081 199° South  Level Estimated
Tue 12:58:00 AM 42.4626 128.5823 199° South  Level Estimated
Tue 12:59:00 AM 42.4067 128.5565 199° South  Level Estimated
Tue 01:00:00 AM 42.3509 128.5308 199° South  Level Estimated
Tue 01:01:00 AM 42.2951 128.5051 199° South  Level Estimated
Tue 01:02:00 AM 42.2392 128.4795 199° South  Level Estimated
Tue 01:03:00 AM 42.1834 128.4539 199° South  Level Estimated
Tue 01:04:00 AM 42.1275 128.4284 199° South  Level Estimated
Tue 01:05:00 AM 42.0716 128.4029 199° South  Level Estimated
Tue 01:06:00 AM 42.0158 128.3775 199° South  Level Estimated
Tue 01:07:00 AM 41.9599 128.3521 199° South  Level Estimated
Tue 01:08:00 AM 41.9040 128.3268 199° South  Level Estimated
Tue 01:09:00 AM 41.8481 128.3015 199° South  Level Estimated
Tue 01:10:00 AM 41.7922 128.2762 199° South  Level Estimated
Tue 01:11:00 AM 41.7363 128.2510 199° South  Level Estimated
Tue 01:12:00 AM 41.6804 128.2258 199° South  Level Estimated
Tue 01:13:00 AM 41.6245 128.2007 199° South  Level Estimated
Tue 01:14:00 AM 41.5686 128.1756 199° South  Level Estimated
Tue 01:15:00 AM 41.5127 128.1505 199° South  Level Estimated
Tue 01:16:00 AM 41.4576 128.1259 199° South  Level Estimated
Tue 01:17:00 AM 41.4026 128.1014 199° South  Level Estimated
Tue 01:18:00 AM 41.3475 128.0768 198° South  Level Estimated
Tue 01:19:00 AM 41.2924 128.0524 198° South  Level Estimated
Tue 01:20:00 AM 41.2374 128.0279 198° South  Level Estimated
Tue 01:21:00 AM 41.1823 128.0035 198° South  Level Estimated
Tue 01:22:00 AM 41.1272 127.9792 198° South  Level Estimated
Tue 01:23:00 AM 41.0721 127.9548 198° South  Level Estimated
Tue 01:24:00 AM 41.0170 127.9306 198° South  Level Estimated
Tue 01:25:00 AM 40.9619 127.9063 198° South  Level Estimated
Tue 01:26:00 AM 40.9068 127.8821 198° South  Level Estimated
Tue 01:27:00 AM 40.8517 127.8580 198° South  Level Estimated
Tue 01:28:00 AM 40.7966 127.8339 198° South  Level Estimated
Tue 01:29:00 AM 40.7415 127.8098 198° South  Level Estimated
Tue 01:30:00 AM 40.6864 127.7858 198° South  Level Estimated
Tue 01:31:00 AM 40.6312 127.7617 198° South  Level Estimated
Tue 01:32:00 AM 40.5761 127.7378 198° South  Level Estimated
Tue 01:33:00 AM 40.5210 127.7139 198° South  Level Estimated
Tue 01:34:00 AM 40.4658 127.6900 198° South  Level Estimated
Tue 01:35:00 AM 40.4107 127.6662 198° South  Level Estimated
Tue 01:36:00 AM 40.3555 127.6424 198° South  Level Estimated
Tue 01:37:00 AM 40.3004 127.6186 198° South  Level Estimated
Tue 01:38:00 AM 40.2452 127.5949 198° South  Level Estimated
Tue 01:39:00 AM 40.1900 127.5712 198° South  Level Estimated
Tue 01:40:00 AM 40.1348 127.5475 198° South  Level Estimated
Tue 01:41:00 AM 40.0797 127.5239 198° South  Level Estimated
Tue 01:42:00 AM 40.0245 127.5004 198° South  Level Estimated
Tue 01:43:00 AM 39.9693 127.4768 198° South  Level Estimated
Tue 01:44:00 AM 39.9141 127.4533 198° South  Level Estimated
Tue 01:45:00 AM 39.8589 127.4299 198° South  Level Estimated
Tue 01:46:00 AM 39.8037 127.4065 198° South  Level Estimated
Tue 01:47:00 AM 39.7485 127.3831 198° South  Level Estimated
Tue 01:48:00 AM 39.6933 127.3597 198° South  Level Estimated
Tue 01:49:00 AM 39.6381 127.3364 198° South  Level Estimated
Tue 01:49:10 AM 38.6864 122.3939 188° South 452 520 32,100  Level FlightAware ADS-B (ZSQD / TAO)
Tue 01:49:40 AM 38.6279 122.3847 188° South 449 517 32,100  Level FlightAware ADS-B (ZSQD / TAO)
Tue 01:50:08 AM 38.5658 122.3748 188° South 446 513 32,100  Level FlightAware ADS-B (ZSQD / TAO)
Tue 01:50:26 AM 38.5458 122.3716 188° South 444 511 32,100  Level FlightAware ADS-B (ZSQD / TAO)
Tue 01:51:11 AM 38.4402 122.3550 188° South 441 507 32,100  Level FlightAware ADS-B (ZSQD / TAO)
Tue 01:51:40 AM 38.3778 122.3451 188° South 441 507 32,100  Level FlightAware ADS-B (ZSQD / TAO)
Tue 01:52:10 AM 38.3171 122.3355 188° South 440 506 32,100  Level FlightAware ADS-B (ZSQD / TAO)
Tue 01:52:45 AM 38.2483 122.3316 171° South 464 534 32,100  Level FlightAware ADS-B (ZSQD / TAO)
Tue 01:53:28 AM 38.1591 122.3883 163° South 479 551 32,100 -400 Level FlightAware ADS-B (ZSQD / TAO)
Tue 01:54:00 AM 38.1063 122.4576 133° Southeast 521 600 31,600 -968 Descending FlightAware ADS-B (ZSQD / TAO)
Tue 01:54:30 AM 38.0551 122.5247 133° Southeast 519 597 31,100 -900 Descending FlightAware ADS-B (ZSQD / TAO)
Tue 01:55:00 AM 38.0058 122.5891 134° Southeast 521 600 30,700 -900 Descending FlightAware ADS-B (ZSQD / TAO)
Tue 01:55:30 AM 37.9533 122.6569 134° Southeast 524 603 30,200 -984 Descending FlightAware ADS-B (ZSQD / TAO)
Tue 01:56:01 AM 37.9024 122.7228 134° Southeast 526 605 29,700 -1,000 Descending FlightAware ADS-B (ZSQD / TAO)
Tue 01:56:30 AM 37.8521 122.7876 134° Southeast 528 608 29,200 -371 Descending FlightAware ADS-B (ZSQD / TAO)
Tue 01:57:38 AM 37.7349 122.9388 134° Southeast 530 610 29,100 -61 Descending FlightAware ADS-B (ZSQD / TAO)
Tue 01:58:08 AM 37.6865 123.0007 134° Southeast 528 608 29,100  Level FlightAware ADS-B (ZSQD / TAO)
Tue 01:58:21 AM 37.6614 123.0327 134° Southeast 528 608 29,100  Level FlightAware ADS-B (ZSQD / TAO)
Tue 02:03:05 AM 37.2168 123.7087 127° Southeast 526 605 29,100  Level FlightAware ADS-B
Tue 02:05:08 AM 37.0732 124.0225 90° East 557 641 29,100  Level FlightAware ADS-B
Tue 02:05:47 AM 37.0827 124.1491 83° East 556 640 29,100 -304 Level FlightAware ADS-B
Tue 02:06:27 AM 37.0933 124.2610 83° East 550 633 28,700 -825 Descending FlightAware ADS-B
Tue 02:07:07 AM 37.1056 124.4007 84° East 537 618 28,000 -1,426 Descending FlightAware ADS-B
Tue 02:08:08 AM 37.1239 124.5967 83° East 515 593 26,300 -1,980 Descending FlightAware ADS-B
Tue 02:08:47 AM 37.1344 124.7124 84° East 502 578 24,700 -2,400 Descending FlightAware ADS-B
Tue 02:09:28 AM 37.1447 124.8273 84° East 485 558 23,100 -2,175 Descending FlightAware ADS-B
Tue 02:10:07 AM 37.1538 124.9296 84° East 463 533 21,800 -2,127 Descending FlightAware ADS-B
Tue 02:10:47 AM 37.1614 125.0181 84° East 447 514 20,300 -2,175 Descending FlightAware ADS-B
Tue 02:11:27 AM 37.1718 125.1385 84° East 433 498 18,900 -1,630 Descending FlightAware ADS-B
Tue 02:12:08 AM 37.1801 125.2384 84° East 424 488 18,100 -1,050 Descending FlightAware ADS-B
Tue 02:12:47 AM 37.1807 125.3357 93° East 420 483 17,500 -1,063 Descending FlightAware ADS-B
Tue 02:13:27 AM 37.1774 125.4289 93° East 407 468 16,700 -1,063 Descending FlightAware ADS-B
Tue 02:14:06 AM 37.1738 125.5215 93° East 401 461 16,100 -1,215 Descending FlightAware ADS-B
Tue 02:14:46 AM 37.1706 125.6050 93° East 395 455 15,100 -1,882 Descending FlightAware ADS-B
Tue 02:15:48 AM 37.1640 125.7516 93° East 382 440 12,900 -2,000 Descending FlightAware ADS-B
Tue 02:16:28 AM 37.1610 125.8302 93° East 367 422 11,700 -1,215 Descending FlightAware ADS-B
Tue 02:17:07 AM 37.1570 125.9179 93° East 333 383 11,300 -769 Descending FlightAware ADS-B
Tue 02:17:46 AM 37.1572 125.9895 84° East 311 358 10,700 -1,063 Descending FlightAware ADS-B
Tue 02:18:26 AM 37.1627 126.0589 84° East 302 348 9,900 -1,258 Descending FlightAware ADS-B
Tue 02:18:48 AM 37.1652 126.0908 85° East 300 345 9,400 -1,463 Descending FlightAware ADS-B
Tue 02:19:07 AM 37.1683 126.1294 84° East 297 342 8,900 -1,500 Descending FlightAware ADS-B
Tue 02:19:28 AM 37.1728 126.1656 72° East 295 339 8,400 -1,538 Descending FlightAware ADS-B
Tue 02:19:46 AM 37.1815 126.1901 64° Northeast 292 336 7,900 -1,385 Descending FlightAware ADS-B
Tue 02:20:07 AM 37.1931 126.2201 64° Northeast 286 329 7,500 -750 Descending FlightAware ADS-B
Tue 02:20:26 AM 37.2061 126.2538 64° Northeast 273 314 7,400 -450 Descending FlightAware ADS-B
Tue 02:20:47 AM 37.2167 126.2819 65° Northeast 260 299 7,200 -732 Descending FlightAware ADS-B
Tue 02:21:07 AM 37.2269 126.3093 65° Northeast 249 287 6,900 -1,350 Descending FlightAware ADS-B
Tue 02:21:27 AM 37.2364 126.3353 66° East 252 290 6,300 -1,650 Descending FlightAware ADS-B
Tue 02:21:47 AM 37.2461 126.3624 66° East 252 290 5,800 -1,833 Descending FlightAware ADS-B
Tue 02:22:03 AM 37.2541 126.3846 66° East 258 297 5,200 -1,756 Descending FlightAware ADS-B
Tue 02:22:28 AM 37.2648 126.4139 65° Northeast 259 298 4,600 -1,161 Descending FlightAware ADS-B
Tue 02:24:07 AM 37.3165 126.5285 66° East 214 246 2,800 -1,034 Descending FlightAware ADS-B
Tue 02:24:24 AM 37.3316 126.5287 354° North 179 206 2,600 35,486 Descending FlightAware ADS-B
Tue 02:24:42 AM 37.3458 126.5263 342° North 171 197 23,500 69,667 Climbing FlightAware ADS-B
Tue 02:27:00 AM 37.4658 126.4525 334° Northwest  Level Estimated
Tue 02:28:00 AM 37.4691 126.4505 334° Northwest  Level Estimated
Tue 02:29:00 AM 37.4691 126.4505 North  Level Estimated
Tue 02:30:00 AM 37.4691 126.4505 North  Level Estimated

Login

Don't have an account? Register now (free) for customized features, flight alerts, and more!